createdAt,value
2022-09-24T00:04:26.491Z,19.52
2022-09-24T00:09:33.545Z,18.70
2022-09-24T00:14:38.715Z,19.53
2022-09-24T00:19:41.002Z,20.33
2022-09-24T00:25:02.128Z,19.80
2022-09-24T00:30:07.699Z,17.77
2022-09-24T00:35:10.262Z,17.83
2022-09-24T00:40:13.113Z,21.27
2022-09-24T00:45:15.443Z,16.52
2022-09-24T00:50:27.448Z,16.47
2022-09-24T00:55:37.187Z,13.93
2022-09-24T01:00:40.012Z,16.23
2022-09-24T01:05:42.738Z,15.77
2022-09-24T01:10:54.286Z,15.07
2022-09-24T01:16:06.168Z,15.70
2022-09-24T01:21:08.581Z,17.45
2022-09-24T01:26:29.601Z,14.85
2022-09-24T01:31:46.897Z,15.43
2022-09-24T01:36:52.748Z,14.23
2022-09-24T01:41:57.451Z,13.55
2022-09-24T01:46:59.939Z,14.40
2022-09-24T01:52:07.553Z,11.70
2022-09-24T01:57:20.216Z,13.30
2022-09-24T02:02:42.707Z,14.57
2022-09-24T02:07:59.124Z,12.25
2022-09-24T02:13:03.980Z,13.93
2022-09-24T02:18:10.569Z,12.18
2022-09-24T02:23:16.220Z,11.57
2022-09-24T02:28:21.066Z,12.67
2022-09-24T02:33:45.551Z,11.47
2022-09-24T02:38:47.897Z,10.43
2022-09-24T02:43:52.732Z,13.27
2022-09-24T02:48:57.841Z,12.35
2022-09-24T02:54:01.587Z,12.48
2022-09-24T02:59:07.428Z,12.45
2022-09-24T03:04:09.927Z,13.07
2022-09-24T03:09:14.744Z,12.45
2022-09-24T03:14:19.411Z,11.95
2022-09-24T03:19:24.182Z,12.02
2022-09-24T03:24:26.671Z,11.43
2022-09-24T03:29:50.109Z,11.52
2022-09-24T03:34:57.795Z,12.25
2022-09-24T03:40:00.066Z,11.57
2022-09-24T03:45:05.472Z,12.47
2022-09-24T03:50:11.753Z,12.45
2022-09-24T03:55:16.592Z,10.77
2022-09-24T04:00:23.998Z,11.18
2022-09-24T04:05:31.056Z,13.65
2022-09-24T04:10:33.373Z,12.35
2022-09-24T04:15:40.605Z,11.50
2022-09-24T04:20:48.024Z,11.47
2022-09-24T04:25:54.691Z,10.80
2022-09-24T04:30:57.350Z,9.90
2022-09-24T04:35:59.937Z,12.23
2022-09-24T04:41:08.225Z,10.18
2022-09-24T04:46:13.638Z,10.07
2022-09-24T04:51:19.549Z,9.67
2022-09-24T04:56:21.841Z,9.17
2022-09-24T05:01:26.862Z,9.17
2022-09-24T05:06:39.241Z,10.23
2022-09-24T05:11:41.724Z,8.17
2022-09-24T05:16:44.161Z,10.17
2022-09-24T05:21:46.553Z,11.20
2022-09-24T05:27:07.729Z,10.48
2022-09-24T05:32:12.037Z,9.32
2022-09-24T05:37:20.340Z,9.07
2022-09-24T05:42:22.676Z,8.88
2022-09-24T05:47:27.417Z,9.27
2022-09-24T05:52:33.346Z,9.10
2022-09-24T05:57:40.484Z,6.35
2022-09-24T06:02:45.828Z,7.73
2022-09-24T06:07:56.243Z,8.00
2022-09-24T06:12:59.181Z,8.17
2022-09-24T06:18:05.397Z,8.88
2022-09-24T06:23:08.019Z,8.52
2022-09-24T06:28:10.421Z,8.20
2022-09-24T06:33:15.321Z,7.85
2022-09-24T06:38:18.692Z,10.40
2022-09-24T06:43:21.269Z,8.05
2022-09-24T06:48:23.641Z,10.43
2022-09-24T06:53:28.294Z,15.30
2022-09-24T06:58:30.633Z,13.53
2022-09-24T07:03:33.931Z,20.10
2022-09-24T07:08:36.379Z,10.05
2022-09-24T07:13:44.126Z,7.95
2022-09-24T07:18:46.408Z,8.43
2022-09-24T07:23:48.766Z,16.02
2022-09-24T07:28:53.633Z,56.60
2022-09-24T07:34:00.728Z,21.33
2022-09-24T07:39:05.592Z,25.03
2022-09-24T07:44:11.870Z,22.03
2022-09-24T07:49:14.443Z,38.60
2022-09-24T07:54:21.341Z,42.13
2022-09-24T07:59:23.848Z,20.23
2022-09-24T08:04:26.640Z,17.30
2022-09-24T08:09:33.077Z,17.73
2022-09-24T08:14:37.587Z,15.10
2022-09-24T08:19:43.348Z,16.27
2022-09-24T08:24:48.111Z,17.07
2022-09-24T08:29:51.548Z,14.07
2022-09-24T08:34:56.277Z,23.13
2022-09-24T08:40:01.278Z,9.33
2022-09-24T08:45:25.272Z,6.32
2022-09-24T08:50:29.140Z,6.18
2022-09-24T08:55:35.677Z,5.45
2022-09-24T09:00:50.267Z,5.28
2022-09-24T09:05:55.803Z,4.80
2022-09-24T09:11:03.309Z,5.70
2022-09-24T09:16:21.962Z,4.32
2022-09-24T09:21:37.541Z,5.80
2022-09-24T09:26:39.805Z,8.53
2022-09-24T09:31:56.553Z,8.48
2022-09-24T09:37:05.847Z,6.13
2022-09-24T09:42:27.339Z,4.87
2022-09-24T09:47:43.639Z,6.00
2022-09-24T09:52:47.273Z,4.97
2022-09-24T09:57:53.089Z,5.40
2022-09-24T10:02:58.189Z,6.57
2022-09-24T10:08:03.012Z,6.07
2022-09-24T10:13:09.594Z,6.97
2022-09-24T10:18:13.823Z,7.40
2022-09-24T10:23:21.537Z,6.50
2022-09-24T10:28:47.415Z,5.47
2022-09-24T10:33:55.043Z,7.15
2022-09-24T10:39:16.991Z,6.28
2022-09-24T10:44:20.556Z,6.10
2022-09-24T10:49:27.452Z,5.18
2022-09-24T10:54:58.906Z,5.73
2022-09-24T11:00:05.160Z,4.03
2022-09-24T11:05:27.947Z,6.38
2022-09-24T11:10:49.638Z,5.15
2022-09-24T11:16:03.859Z,4.97
2022-09-24T11:21:15.697Z,6.70
2022-09-24T11:26:24.068Z,5.10
2022-09-24T11:31:29.513Z,5.85
2022-09-24T11:36:53.057Z,4.13
2022-09-24T11:42:14.750Z,6.10
2022-09-24T11:47:28.690Z,6.82
2022-09-24T11:52:36.851Z,7.03
2022-09-24T11:57:45.210Z,4.07
2022-09-24T12:02:52.606Z,4.63
2022-09-24T12:08:01.945Z,5.20
2022-09-24T12:13:20.460Z,3.13
2022-09-24T12:18:32.305Z,3.78
2022-09-24T12:23:42.817Z,4.40
2022-09-24T12:29:14.663Z,3.67
2022-09-24T12:34:22.359Z,3.53
2022-09-24T12:39:30.304Z,6.57
2022-09-24T12:44:35.197Z,5.27
2022-09-24T12:49:37.789Z,3.90
2022-09-24T12:54:43.532Z,5.03
2022-09-24T12:59:49.324Z,6.83
2022-09-24T13:05:05.017Z,5.25
2022-09-24T13:10:16.720Z,5.43
2022-09-24T13:15:27.955Z,5.33
2022-09-24T13:20:31.646Z,5.10
2022-09-24T13:25:34.352Z,5.03
2022-09-24T13:30:38.232Z,6.38
2022-09-24T13:35:45.710Z,5.63
2022-09-24T13:41:14.628Z,8.23
2022-09-24T13:46:19.241Z,14.30
2022-09-24T13:51:25.341Z,8.93
2022-09-24T13:56:28.248Z,12.93
2022-09-24T14:01:35.414Z,7.37
2022-09-24T14:06:40.207Z,4.60
2022-09-24T14:11:53.518Z,6.87
2022-09-24T14:17:07.362Z,6.83
2022-09-24T14:22:22.420Z,8.50
2022-09-24T14:27:26.666Z,7.13
2022-09-24T14:32:33.057Z,4.97
2022-09-24T14:37:41.970Z,7.47
2022-09-24T14:42:57.238Z,8.10
2022-09-24T14:48:03.332Z,5.53
2022-09-24T14:53:12.948Z,5.50
2022-09-24T14:58:36.485Z,5.53
2022-09-24T15:03:44.421Z,5.07
2022-09-24T15:09:13.319Z,5.03
2022-09-24T15:29:25.046Z,7.23
2022-09-24T15:34:29.384Z,6.00
2022-09-24T15:39:32.145Z,6.35
2022-09-24T15:44:34.732Z,7.37
2022-09-24T15:49:37.400Z,9.57
2022-09-24T15:54:40.317Z,9.68
2022-09-24T15:59:43.116Z,7.38
2022-09-24T16:04:45.831Z,6.93
2022-09-24T16:09:48.820Z,7.57
2022-09-24T16:14:51.635Z,9.80
2022-09-24T16:19:54.808Z,13.27
2022-09-24T16:24:57.975Z,10.70
2022-09-24T16:30:01.046Z,8.57
2022-09-24T16:35:03.945Z,12.82
2022-09-24T16:40:06.938Z,11.98
2022-09-24T16:45:10.666Z,10.60
2022-09-24T16:50:13.721Z,9.98
2022-09-24T16:55:16.862Z,31.63
2022-09-24T17:00:20.102Z,23.65
2022-09-24T17:05:24.879Z,18.47
2022-09-24T17:10:27.869Z,19.30
2022-09-24T17:15:30.609Z,27.33
2022-09-24T17:20:33.204Z,23.30
2022-09-24T17:25:35.655Z,26.73
2022-09-24T17:30:38.173Z,30.37
2022-09-24T17:35:41.494Z,26.03
2022-09-24T17:40:52.708Z,18.83
2022-09-24T17:45:57.612Z,28.17
2022-09-24T17:51:04.928Z,32.67
2022-09-24T17:56:08.279Z,23.10
2022-09-24T18:01:21.260Z,18.30
2022-09-24T18:06:30.562Z,21.07
2022-09-24T18:11:42.769Z,19.07
2022-09-24T18:16:45.733Z,17.77
2022-09-24T18:21:49.505Z,20.73
2022-09-24T18:26:52.281Z,20.80
2022-09-24T18:31:55.572Z,21.63
2022-09-24T18:36:58.383Z,20.15
2022-09-24T18:42:01.085Z,28.33
2022-09-24T18:47:03.646Z,26.27
2022-09-24T18:52:08.931Z,23.38
2022-09-24T18:57:11.687Z,22.17
2022-09-24T19:02:15.000Z,20.65
2022-09-24T19:07:17.925Z,20.58
2022-09-24T19:12:21.358Z,19.40
2022-09-24T19:17:24.015Z,21.63
2022-09-24T19:22:26.569Z,19.93
2022-09-24T19:27:29.229Z,22.00
2022-09-24T19:32:32.187Z,23.97
2022-09-24T19:37:35.054Z,22.45
2022-09-24T19:42:41.398Z,22.33
2022-09-24T19:47:43.993Z,23.60
2022-09-24T19:52:48.867Z,20.38
2022-09-24T19:57:51.708Z,22.58
2022-09-24T20:02:54.361Z,20.33
2022-09-24T20:07:56.776Z,17.17
2022-09-24T20:12:59.879Z,19.77
2022-09-24T20:18:02.924Z,19.37
2022-09-24T20:23:08.348Z,17.77
2022-09-24T20:28:15.402Z,18.60
2022-09-24T20:33:20.337Z,18.45
2022-09-24T20:38:23.077Z,17.38
2022-09-24T20:43:27.775Z,19.03
2022-09-24T20:48:31.737Z,18.98
2022-09-24T20:53:35.457Z,18.90
2022-09-24T20:58:39.327Z,16.67
2022-09-24T21:03:45.959Z,17.02
2022-09-24T21:08:49.339Z,15.93
2022-09-24T21:13:53.660Z,18.17
2022-09-24T21:18:56.317Z,17.48
2022-09-24T21:24:00.040Z,15.43
2022-09-24T21:29:08.374Z,19.27
2022-09-24T21:34:11.691Z,18.52
2022-09-24T21:39:18.802Z,19.00
2022-09-24T21:44:22.039Z,17.88
2022-09-24T21:49:24.905Z,18.73
2022-09-24T21:54:27.641Z,18.65
2022-09-24T21:59:49.002Z,20.42
2022-09-24T22:04:51.635Z,23.43
2022-09-24T22:09:54.309Z,21.00
2022-09-24T22:14:57.018Z,20.92
2022-09-24T22:19:59.988Z,19.07
2022-09-24T22:25:02.858Z,21.85
2022-09-24T22:30:06.148Z,20.25
2022-09-24T22:35:45.540Z,21.15
2022-09-24T22:40:49.090Z,21.53
2022-09-24T22:45:56.943Z,20.83
2022-09-24T22:50:59.700Z,22.45
2022-09-24T22:56:08.047Z,20.15
2022-09-24T23:01:10.914Z,25.67
2022-09-24T23:06:13.781Z,23.02
2022-09-24T23:11:20.268Z,22.85
2022-09-24T23:16:24.728Z,24.50
2022-09-24T23:21:28.648Z,23.13
2022-09-24T23:26:31.943Z,21.92
2022-09-24T23:31:35.715Z,24.27
2022-09-24T23:36:38.367Z,24.97
2022-09-24T23:41:40.975Z,23.63
2022-09-24T23:46:43.739Z,23.10
2022-09-24T23:51:46.380Z,24.67
2022-09-24T23:56:48.888Z,24.47
